createdAt,value
2022-08-01T00:02:29.232Z,69.51
2022-08-01T00:07:32.100Z,69.44
2022-08-01T00:12:35.168Z,69.47
2022-08-01T00:17:38.461Z,69.53
2022-08-01T00:22:41.461Z,69.43
2022-08-01T00:27:44.365Z,69.48
2022-08-01T00:32:47.273Z,69.37
2022-08-01T00:37:50.112Z,69.45
2022-08-01T00:42:53.005Z,69.39
2022-08-01T00:47:55.915Z,69.39
2022-08-01T00:53:00.160Z,69.42
2022-08-01T00:58:06.117Z,69.40
2022-08-01T01:03:09.814Z,69.45
2022-08-01T01:08:20.765Z,69.30
2022-08-01T01:13:49.609Z,69.23
2022-08-01T01:19:02.193Z,69.35
2022-08-01T01:24:11.967Z,69.23
2022-08-01T01:29:18.934Z,69.18
2022-08-01T01:34:24.781Z,69.36
2022-08-01T01:39:31.004Z,69.44
2022-08-01T01:44:35.620Z,69.46
2022-08-01T01:49:41.043Z,69.29
2022-08-01T01:54:46.671Z,69.28
2022-08-01T01:59:52.017Z,69.36
2022-08-01T02:04:56.499Z,69.26
2022-08-01T02:10:01.458Z,69.22
2022-08-01T02:15:06.165Z,69.41
2022-08-01T02:20:09.738Z,69.41
2022-08-01T02:25:28.178Z,69.27
2022-08-01T02:30:40.691Z,69.21
2022-08-01T02:36:30.305Z,69.35
2022-08-01T02:41:14.048Z,69.35
2022-08-01T02:46:26.899Z,69.52
2022-08-01T02:51:32.191Z,69.54
2022-08-01T02:56:36.097Z,69.48
2022-08-01T03:01:41.849Z,69.40
2022-08-01T03:06:46.965Z,69.40
2022-08-01T03:11:52.259Z,69.42
2022-08-01T03:16:57.107Z,69.22
2022-08-01T03:22:01.142Z,69.03
2022-08-01T03:27:05.222Z,69.16
2022-08-01T03:32:11.729Z,69.24
2022-08-01T03:38:00.325Z,69.15
2022-08-01T03:43:23.630Z,69.09
2022-08-01T03:48:33.609Z,69.04
2022-08-01T03:53:40.034Z,68.69
2022-08-01T03:58:50.039Z,68.88
2022-08-01T04:03:53.967Z,69.04
2022-08-01T04:08:56.967Z,68.89
2022-08-01T04:13:59.864Z,68.74
2022-08-01T04:19:03.282Z,68.79
2022-08-01T04:24:14.192Z,69.63
2022-08-01T04:29:18.841Z,69.44
2022-08-01T04:34:25.713Z,70.21
2022-08-01T04:39:32.990Z,70.25
2022-08-01T04:44:53.797Z,70.06
2022-08-01T04:49:57.824Z,69.67
2022-08-01T04:55:01.389Z,69.45
2022-08-01T05:00:05.487Z,69.07
2022-08-01T05:05:09.097Z,68.70
2022-08-01T05:10:12.418Z,68.37
2022-08-01T05:15:15.841Z,67.84
2022-08-01T05:20:18.859Z,67.30
2022-08-01T05:25:56.004Z,67.30
2022-08-01T05:30:47.519Z,67.64
2022-08-01T05:35:50.463Z,68.02
2022-08-01T05:40:53.309Z,68.18
2022-08-01T05:45:56.657Z,67.69
2022-08-01T05:50:59.575Z,67.61
2022-08-01T05:56:03.086Z,67.74
2022-08-01T06:01:05.931Z,67.74
2022-08-01T06:06:08.913Z,67.97
2022-08-01T06:11:24.044Z,68.20
2022-08-01T06:16:26.978Z,68.06
2022-08-01T06:21:29.853Z,68.07
2022-08-01T06:26:32.798Z,67.97
2022-08-01T06:31:35.769Z,67.80
2022-08-01T06:36:38.882Z,67.93
2022-08-01T06:41:42.725Z,68.22
2022-08-01T06:46:45.841Z,68.11
2022-08-01T06:51:48.714Z,67.99
2022-08-01T06:56:51.564Z,68.16
2022-08-01T07:01:54.461Z,67.86
2022-08-01T07:06:58.038Z,67.51
2022-08-01T07:12:01.426Z,67.41
2022-08-01T07:17:04.516Z,67.35
2022-08-01T07:22:07.531Z,66.90
2022-08-01T07:27:23.832Z,66.80
2022-08-01T07:32:30.443Z,66.57
2022-08-01T07:37:45.556Z,66.12
2022-08-01T07:42:52.396Z,65.99
2022-08-01T07:47:55.487Z,65.86
2022-08-01T07:52:58.373Z,65.51
2022-08-01T07:58:01.206Z,65.17
2022-08-01T08:03:04.228Z,64.84
2022-08-01T08:08:08.668Z,64.24
2022-08-01T08:13:11.608Z,63.78
2022-08-01T08:18:14.820Z,62.96
2022-08-01T08:23:42.520Z,63.27
2022-08-01T08:28:47.492Z,63.11
2022-08-01T08:33:50.292Z,62.65
2022-08-01T08:38:53.204Z,62.36
2022-08-01T08:43:57.927Z,62.13
2022-08-01T08:49:04.633Z,61.95
2022-08-01T08:54:12.703Z,61.87
2022-08-01T08:59:15.867Z,61.35
2022-08-01T09:04:19.376Z,61.02
2022-08-01T09:09:25.814Z,60.83
2022-08-01T09:14:31.239Z,61.08
2022-08-01T09:19:41.522Z,61.00
2022-08-01T09:25:18.149Z,60.34
2022-08-01T09:30:23.889Z,60.03
2022-08-01T09:35:36.210Z,59.69
2022-08-01T09:40:55.928Z,59.00
2022-08-01T09:46:12.590Z,58.58
2022-08-01T09:51:59.157Z,58.80
2022-08-01T09:57:15.384Z,58.71
2022-08-01T10:02:37.813Z,57.87
2022-08-01T10:07:58.172Z,57.01
2022-08-01T10:13:03.411Z,56.61
2022-08-01T10:18:16.387Z,56.21
2022-08-01T10:23:39.996Z,56.03
2022-08-01T10:28:49.320Z,55.64
2022-08-01T10:33:53.594Z,55.17
2022-08-01T10:38:57.301Z,54.73
2022-08-01T10:44:03.833Z,54.25
2022-08-01T10:49:16.631Z,54.32
2022-08-01T10:54:19.554Z,53.80
2022-08-01T10:59:49.115Z,53.81
2022-08-01T11:04:56.442Z,52.69
2022-08-01T11:10:14.935Z,52.10
2022-08-01T11:15:29.735Z,52.10
2022-08-01T11:20:41.761Z,51.73
2022-08-01T11:26:05.919Z,51.10
2022-08-01T11:31:14.094Z,50.80
2022-08-01T11:36:18.614Z,50.89
2022-08-01T11:41:38.044Z,50.55
2022-08-01T11:46:54.258Z,50.30
2022-08-01T11:52:04.510Z,50.19
2022-08-01T11:57:14.717Z,49.70
2022-08-01T12:02:30.889Z,49.09
2022-08-01T12:07:36.706Z,49.13
2022-08-01T12:12:46.333Z,49.09
2022-08-01T12:17:59.550Z,49.06
2022-08-01T12:23:06.948Z,48.95
2022-08-01T12:28:10.791Z,48.58
2022-08-01T12:33:19.856Z,48.15
2022-08-01T12:38:25.970Z,47.77
2022-08-01T12:43:32.593Z,47.41
2022-08-01T12:48:35.594Z,47.27
2022-08-01T12:53:40.821Z,47.48
2022-08-01T12:58:44.835Z,47.21
2022-08-01T13:04:07.680Z,46.77
2022-08-01T13:09:14.754Z,46.28
2022-08-01T13:14:30.424Z,46.01
2022-08-01T13:19:47.832Z,46.08
2022-08-01T13:24:50.742Z,45.90
2022-08-01T13:29:54.478Z,45.82
2022-08-01T13:35:11.400Z,45.95
2022-08-01T13:40:25.835Z,46.03
2022-08-01T13:45:28.706Z,45.82
2022-08-01T13:50:33.160Z,45.66
2022-08-01T13:55:36.052Z,45.57
2022-08-01T14:00:39.051Z,45.32
2022-08-01T14:05:41.937Z,45.42
2022-08-01T14:10:44.821Z,45.36
2022-08-01T14:15:48.422Z,45.36
2022-08-01T14:20:54.495Z,45.11
2022-08-01T14:26:04.131Z,44.62
2022-08-01T14:31:09.114Z,44.78
2022-08-01T14:36:29.669Z,44.79
2022-08-01T14:41:34.818Z,45.19
2022-08-01T14:46:37.959Z,45.25
2022-08-01T14:52:00.448Z,45.54
2022-08-01T14:57:04.664Z,45.53
2022-08-01T15:02:08.494Z,45.73
2022-08-01T15:07:12.410Z,45.33
2022-08-01T15:12:15.698Z,45.26
2022-08-01T15:17:21.600Z,45.09
2022-08-01T15:22:26.882Z,45.13
2022-08-01T15:27:30.232Z,45.46
2022-08-01T15:32:33.237Z,45.51
2022-08-01T15:37:40.877Z,45.62
2022-08-01T15:42:46.458Z,45.70
2022-08-01T15:47:49.332Z,45.83
2022-08-01T15:52:52.214Z,46.01
2022-08-01T15:57:55.825Z,46.21
2022-08-01T16:02:58.691Z,46.36
2022-08-01T16:08:03.578Z,46.48
2022-08-01T16:13:07.590Z,46.79
2022-08-01T16:18:16.140Z,46.85
2022-08-01T16:23:19.120Z,46.89
2022-08-01T16:28:22.076Z,47.03
2022-08-01T16:33:45.966Z,47.30
2022-08-01T16:38:48.157Z,47.18
2022-08-01T16:43:53.763Z,47.36
2022-08-01T16:48:58.036Z,47.57
2022-08-01T16:54:01.273Z,47.63
2022-08-01T16:59:06.971Z,47.68
2022-08-01T17:04:11.046Z,47.86
2022-08-01T17:09:13.908Z,47.72
2022-08-01T17:14:17.954Z,47.92
2022-08-01T17:19:26.808Z,48.17
2022-08-01T17:24:36.270Z,48.28
2022-08-01T17:29:43.839Z,48.46
2022-08-01T17:34:47.245Z,48.63
2022-08-01T17:39:50.310Z,49.05
2022-08-01T17:44:54.289Z,49.25
2022-08-01T17:50:02.638Z,49.44
2022-08-01T17:55:53.720Z,49.69
2022-08-01T18:00:30.005Z,49.90
2022-08-01T18:05:37.251Z,50.29
2022-08-01T18:10:40.437Z,50.51
2022-08-01T18:15:45.275Z,50.70
2022-08-01T18:20:48.267Z,50.96
2022-08-01T18:25:51.268Z,51.26
2022-08-01T18:30:57.313Z,51.54
2022-08-01T18:36:03.869Z,51.98
2022-08-01T18:41:10.210Z,52.40
2022-08-01T18:46:13.100Z,52.68
2022-08-01T18:51:16.006Z,52.87
2022-08-01T18:56:19.316Z,53.11
2022-08-01T19:01:22.597Z,53.45
2022-08-01T19:06:27.276Z,53.64
2022-08-01T19:11:32.199Z,54.02
2022-08-01T19:16:36.081Z,54.21
2022-08-01T19:21:44.634Z,54.42
2022-08-01T19:26:51.376Z,54.53
2022-08-01T19:31:54.477Z,54.80
2022-08-01T19:36:58.593Z,54.96
2022-08-01T19:42:01.727Z,55.06
2022-08-01T19:47:06.154Z,55.21
2022-08-01T19:52:09.991Z,55.26
2022-08-01T19:57:15.441Z,55.50
2022-08-01T20:02:22.886Z,55.55
2022-08-01T20:07:27.870Z,55.68
2022-08-01T20:12:31.181Z,55.73
2022-08-01T20:17:34.171Z,55.86
2022-08-01T20:22:41.180Z,56.06
2022-08-01T20:27:45.946Z,56.29
2022-08-01T20:32:49.340Z,56.45
2022-08-01T20:38:05.585Z,56.67
2022-08-01T20:43:11.838Z,56.79
2022-08-01T20:48:16.395Z,56.92
2022-08-01T20:53:19.330Z,56.94
2022-08-01T20:58:44.821Z,57.17
2022-08-01T21:04:32.966Z,57.31
2022-08-01T21:09:39.635Z,57.66
2022-08-01T21:14:56.100Z,57.72
2022-08-01T21:20:06.624Z,58.01
2022-08-01T21:25:13.342Z,58.19
2022-08-01T21:30:17.331Z,58.45
2022-08-01T21:35:22.662Z,58.62
2022-08-01T21:40:26.140Z,58.65
2022-08-01T21:45:30.143Z,58.91
2022-08-01T21:50:54.876Z,59.05
2022-08-01T21:56:14.905Z,59.26
2022-08-01T22:01:52.043Z,59.28
2022-08-01T22:07:00.174Z,59.51
2022-08-01T22:12:06.436Z,59.61
2022-08-01T22:17:14.019Z,59.71
2022-08-01T22:22:34.216Z,59.81
2022-08-01T22:28:05.765Z,60.02
2022-08-01T22:33:07.606Z,60.14
2022-08-01T22:38:20.995Z,60.39
2022-08-01T22:43:42.354Z,60.39
2022-08-01T22:48:51.334Z,60.48
2022-08-01T22:54:07.058Z,60.42
2022-08-01T22:59:42.585Z,60.46
2022-08-01T23:04:49.452Z,60.60
2022-08-01T23:09:55.277Z,60.72
2022-08-01T23:15:00.894Z,60.89
2022-08-01T23:20:06.924Z,61.01
2022-08-01T23:25:12.512Z,60.93
2022-08-01T23:30:15.653Z,60.92
2022-08-01T23:35:19.695Z,60.97
2022-08-01T23:40:24.960Z,61.09
2022-08-01T23:45:28.960Z,61.34
2022-08-01T23:50:51.828Z,61.34
2022-08-01T23:55:54.741Z,61.41
